Time;durP1;ratioP1;P1;durP2;ratioP2;P2;SDS_P1;SDS_P2;PMS_P1;PMS_P2;Temp;Humidity;BMP_temperature;BMP_pressure;BME280_temperature;BME280_humidity;BME280_pressure;Samples;Min_cycle;Max_cycle;Signal;HPM_P1;HPM_P2
2022/06/26 00:00:46;;;;;;;1.52;1.42;;;24.80;57.30;;;;;;4993888;28;20447;-68
2022/06/26 00:03:12;;;;;;;1.90;1.53;;;24.80;57.30;;;;;;5011703;28;20403;-69
2022/06/26 00:05:38;;;;;;;1.80;1.50;;;24.80;57.30;;;;;;5011828;28;20465;-68
2022/06/26 00:08:04;;;;;;;1.60;1.50;;;24.80;57.30;;;;;;5011716;28;20389;-69
2022/06/26 00:10:30;;;;;;;1.80;1.45;;;24.80;57.30;;;;;;5001121;28;20413;-69
2022/06/26 00:12:55;;;;;;;1.90;1.50;;;24.80;57.30;;;;;;4974349;28;20489;-69
2022/06/26 00:15:22;;;;;;;2.40;1.50;;;24.80;57.30;;;;;;4974555;28;20445;-70
2022/06/26 00:17:47;;;;;;;2.20;1.50;;;24.80;57.30;;;;;;4974779;28;20405;-68
2022/06/26 00:20:13;;;;;;;1.60;1.50;;;24.80;57.30;;;;;;4991928;28;20395;-69
2022/06/26 00:22:39;;;;;;;1.90;1.57;;;24.80;57.30;;;;;;4981501;28;20397;-68
2022/06/26 00:25:05;;;;;;;1.65;1.50;;;24.80;57.30;;;;;;5011081;28;20474;-68
2022/06/26 00:27:31;;;;;;;1.90;1.48;;;24.80;57.30;;;;;;4993742;28;20966;-68
2022/06/26 00:29:56;;;;;;;1.90;1.70;;;24.80;57.30;;;;;;4993943;28;20409;-70
2022/06/26 00:32:22;;;;;;;2.07;1.67;;;24.70;57.30;;;;;;5011222;28;20400;-69
2022/06/26 00:34:48;;;;;;;2.10;1.55;;;24.70;57.30;;;;;;4992688;28;20396;-68
2022/06/26 00:37:13;;;;;;;1.57;1.47;;;24.70;57.30;;;;;;4993257;28;20400;-69
2022/06/26 00:39:39;;;;;;;1.50;1.40;;;24.80;57.30;;;;;;5008654;28;20412;-68
2022/06/26 00:42:05;;;;;;;1.60;1.50;;;24.80;57.30;;;;;;5012241;28;20895;-69
2022/06/26 00:44:32;;;;;;;2.10;1.42;;;24.70;57.30;;;;;;5012169;28;20409;-68
2022/06/26 00:46:58;;;;;;;1.70;1.50;;;24.70;57.20;;;;;;5011760;28;20425;-68
2022/06/26 00:49:24;;;;;;;1.75;1.60;;;24.70;57.20;;;;;;5012047;28;20396;-69
2022/06/26 00:51:51;;;;;;;2.28;1.30;;;24.70;57.20;;;;;;5012009;28;20400;-69
2022/06/26 00:54:20;;;;;;;1.90;1.50;;;24.70;57.30;;;;;;5012034;28;20392;-67
2022/06/26 00:56:46;;;;;;;2.20;1.50;;;24.70;57.30;;;;;;5006871;28;20784;-68
2022/06/26 00:59:13;;;;;;;1.93;1.50;;;24.70;57.30;;;;;;5003597;28;20402;-69
2022/06/26 01:01:39;;;;;;;1.60;1.50;;;24.70;57.20;;;;;;5001021;28;20408;-69
2022/06/26 01:04:06;;;;;;;1.90;1.30;;;24.70;57.20;;;;;;5000104;28;20391;-69
2022/06/26 01:06:32;;;;;;;1.92;1.45;;;24.70;57.20;;;;;;5001060;28;20436;-67
2022/06/26 01:08:58;;;;;;;1.90;1.50;;;24.70;57.20;;;;;;5000314;28;20389;-67
2022/06/26 01:11:25;;;;;;;1.80;1.60;;;24.70;57.30;;;;;;5002562;28;20397;-68
2022/06/26 01:13:54;;;;;;;1.70;1.60;;;24.70;57.30;;;;;;5001502;28;20477;-70
2022/06/26 01:16:21;;;;;;;1.70;1.60;;;24.70;57.20;;;;;;5003264;28;20524;-69
2022/06/26 01:18:50;;;;;;;2.20;1.50;;;24.70;57.30;;;;;;5000284;28;20448;-68
2022/06/26 01:21:17;;;;;;;2.05;1.40;;;24.70;57.20;;;;;;5001071;28;20432;-68
2022/06/26 01:23:43;;;;;;;1.63;1.50;;;24.70;57.30;;;;;;5003000;28;20402;-68
2022/06/26 01:26:09;;;;;;;1.80;1.58;;;24.70;57.20;;;;;;4982080;28;20516;-67
2022/06/26 01:28:35;;;;;;;1.98;1.58;;;24.60;57.20;;;;;;4974887;28;20490;-68
2022/06/26 01:31:01;;;;;;;2.05;1.50;;;24.70;57.20;;;;;;4991527;28;20425;-69
2022/06/26 01:33:26;;;;;;;1.70;1.60;;;24.70;57.20;;;;;;4974657;28;20956;-68
2022/06/26 01:35:52;;;;;;;2.17;1.60;;;24.60;57.10;;;;;;4991965;28;20485;-68
2022/06/26 01:38:22;;;;;;;1.70;1.60;;;24.70;57.20;;;;;;4991860;28;20387;-68
2022/06/26 01:40:53;;;;;;;1.55;1.45;;;24.60;57.10;;;;;;4974080;28;20398;-68
2022/06/26 01:43:23;;;;;;;1.50;1.40;;;24.70;57.20;;;;;;4991680;28;20398;-68
2022/06/26 01:45:51;;;;;;;1.65;1.50;;;24.60;57.10;;;;;;4974243;28;20845;-68
2022/06/26 01:48:19;;;;;;;1.60;1.50;;;24.60;57.20;;;;;;4978458;28;20405;-69
2022/06/26 01:50:45;;;;;;;1.63;1.53;;;24.70;57.20;;;;;;4995104;28;20464;-67
2022/06/26 01:53:12;;;;;;;3.85;1.50;;;24.70;57.20;;;;;;4976992;28;20401;-68
2022/06/26 01:55:38;;;;;;;1.65;1.40;;;24.60;57.20;;;;;;4977816;28;20395;-69
2022/06/26 01:58:05;;;;;;;2.63;1.73;;;24.60;57.10;;;;;;4978078;28;20477;-68
2022/06/26 02:00:33;;;;;;;1.50;1.40;;;24.60;57.20;;;;;;4978163;28;20903;-69
2022/06/26 02:02:59;;;;;;;1.70;1.45;;;24.60;57.80;;;;;;4977511;28;20402;-68
2022/06/26 02:05:26;;;;;;;1.52;1.40;;;24.60;57.10;;;;;;4995055;28;20424;-68
2022/06/26 02:07:52;;;;;;;2.65;1.60;;;24.60;57.10;;;;;;4995388;28;20402;-68
2022/06/26 02:15:55;;;;;;;1.75;1.50;;;24.60;57.10;;;;;;4995656;28;20408;-68
2022/06/26 02:18:21;;;;;;;1.98;1.65;;;24.70;57.10;;;;;;4977389;28;20406;-68
2022/06/26 02:20:48;;;;;;;1.90;1.50;;;24.60;57.10;;;;;;4994982;28;20399;-69
2022/06/26 02:23:14;;;;;;;1.60;1.48;;;24.60;57.10;;;;;;4994991;28;20402;-69
2022/06/26 02:25:41;;;;;;;1.65;1.45;;;24.60;57.10;;;;;;4995125;28;20819;-68
2022/06/26 02:28:08;;;;;;;1.60;1.50;;;24.60;57.10;;;;;;4977392;28;20400;-68
2022/06/26 02:30:34;;;;;;;1.60;1.48;;;24.60;57.10;;;;;;4995192;28;20429;-68
2022/06/26 02:33:00;;;;;;;2.00;1.50;;;24.60;57.10;;;;;;4976910;28;20395;-68
2022/06/26 02:35:28;;;;;;;1.53;1.43;;;24.60;57.10;;;;;;4994883;28;20804;-69
2022/06/26 02:37:54;;;;;;;1.90;1.70;;;24.60;57.10;;;;;;4995000;28;20942;-68
2022/06/26 02:40:24;;;;;;;1.87;1.50;;;24.60;57.10;;;;;;4977282;28;20434;-68
2022/06/26 02:42:51;;;;;;;1.90;1.33;;;24.60;57.10;;;;;;4977263;28;21035;-67
2022/06/26 02:45:18;;;;;;;1.90;1.40;;;24.60;57.10;;;;;;4994567;28;20510;-67
2022/06/26 02:47:44;;;;;;;1.50;1.40;;;24.60;57.10;;;;;;4994768;28;20781;-67
2022/06/26 02:50:10;;;;;;;1.67;1.50;;;24.60;57.10;;;;;;4994630;28;20559;-68
2022/06/26 02:52:37;;;;;;;1.40;1.30;;;24.60;57.10;;;;;;4977117;28;20485;-67
2022/06/26 02:55:04;;;;;;;1.75;1.48;;;24.50;57.10;;;;;;4994141;28;20934;-67
2022/06/26 02:57:29;;;;;;;1.40;1.27;;;24.50;57.00;;;;;;4994116;28;20387;-67
2022/06/26 02:59:55;;;;;;;1.60;1.50;;;24.50;57.00;;;;;;4976459;28;20794;-67
2022/06/26 03:02:21;;;;;;;1.60;1.50;;;24.50;57.00;;;;;;4977058;28;20411;-68
2022/06/26 03:04:47;;;;;;;1.45;1.30;;;24.60;57.10;;;;;;4994154;28;20379;-67
2022/06/26 03:07:13;;;;;;;1.73;1.40;;;24.50;57.00;;;;;;4976618;28;20509;-67
2022/06/26 03:09:38;;;;;;;1.67;1.58;;;24.50;57.00;;;;;;4994361;28;20390;-67
2022/06/26 03:12:05;;;;;;;1.80;1.57;;;24.50;57.00;;;;;;4994223;28;20449;-68
2022/06/26 03:14:31;;;;;;;1.63;1.53;;;24.60;57.10;;;;;;4994298;28;20390;-68
2022/06/26 03:16:57;;;;;;;1.52;1.42;;;24.50;57.00;;;;;;4976253;28;20399;-69
2022/06/26 03:19:23;;;;;;;1.40;1.30;;;24.50;57.10;;;;;;4994092;28;20949;-68
2022/06/26 03:21:49;;;;;;;1.70;1.30;;;24.50;57.00;;;;;;4994109;28;20398;-67
2022/06/26 03:24:15;;;;;;;1.60;1.20;;;24.50;57.00;;;;;;4993828;28;20394;-68
2022/06/26 03:26:41;;;;;;;1.90;1.50;;;24.50;57.00;;;;;;4993847;28;20418;-68
2022/06/26 03:29:09;;;;;;;1.53;1.43;;;24.50;57.00;;;;;;4993320;28;20477;-68
2022/06/26 03:31:35;;;;;;;1.60;1.50;;;24.50;57.50;;;;;;4993890;28;20409;-68
2022/06/26 03:34:01;;;;;;;1.80;1.38;;;24.50;57.00;;;;;;4976300;28;20402;-68
2022/06/26 03:36:28;;;;;;;1.83;1.42;;;24.50;57.00;;;;;;4993820;28;20386;-68
2022/06/26 03:38:54;;;;;;;2.13;1.40;;;24.50;56.90;;;;;;4976111;28;20759;-68
2022/06/26 03:41:20;;;;;;;1.50;1.40;;;24.50;56.80;;;;;;4993708;28;20453;-68
2022/06/26 03:43:46;;;;;;;1.60;1.50;;;24.50;56.90;;;;;;4993702;28;20803;-68
2022/06/26 03:46:12;;;;;;;1.87;1.53;;;24.50;56.80;;;;;;4993251;28;20422;-68
2022/06/26 03:48:38;;;;;;;1.52;1.42;;;24.50;56.80;;;;;;4976162;28;20871;-68
2022/06/26 03:51:04;;;;;;;1.98;1.30;;;24.50;56.80;;;;;;4993047;28;20406;-68
2022/06/26 03:53:31;;;;;;;1.50;1.40;;;24.50;56.80;;;;;;4993458;28;20383;-68
2022/06/26 03:55:57;;;;;;;1.73;1.40;;;24.50;56.70;;;;;;4993407;28;20480;-68
2022/06/26 03:58:24;;;;;;;1.80;1.70;;;24.50;56.80;;;;;;4993395;28;20530;-68
2022/06/26 04:00:50;;;;;;;1.60;1.40;;;24.50;56.80;;;;;;4993364;28;20431;-68
2022/06/26 04:03:16;;;;;;;2.00;1.50;;;24.50;56.70;;;;;;4993013;28;20456;-68
2022/06/26 04:05:41;;;;;;;1.67;1.30;;;24.50;56.80;;;;;;4993238;28;20504;-68
2022/06/26 04:08:07;;;;;;;1.40;1.23;;;24.50;56.70;;;;;;4975717;28;20414;-68
2022/06/26 04:10:34;;;;;;;1.70;1.30;;;24.50;56.70;;;;;;4993067;28;20728;-68
2022/06/26 04:13:02;;;;;;;1.73;1.45;;;24.50;56.70;;;;;;4992652;28;20414;-67
2022/06/26 04:15:30;;;;;;;1.60;1.50;;;24.50;56.70;;;;;;4993220;28;20436;-68
2022/06/26 04:17:55;;;;;;;1.63;1.52;;;24.50;56.80;;;;;;4975710;28;20394;-68
2022/06/26 04:20:21;;;;;;;1.60;1.50;;;24.50;56.70;;;;;;4992939;28;20399;-68
2022/06/26 04:23:04;;;;;;;1.85;1.42;;;24.50;56.70;;;;;;4993004;28;20798;-67
2022/06/26 04:25:32;;;;;;;1.60;1.42;;;24.50;56.80;;;;;;4992839;28;20421;-68
2022/06/26 04:27:58;;;;;;;1.60;1.30;;;24.50;56.70;;;;;;4992894;28;20747;-68
2022/06/26 04:30:24;;;;;;;1.58;1.40;;;24.50;56.70;;;;;;4992779;28;20398;-68
2022/06/26 04:32:50;;;;;;;2.30;1.50;;;24.50;56.60;;;;;;4975185;28;20398;-68
2022/06/26 04:35:16;;;;;;;1.50;1.40;;;24.50;56.70;;;;;;4974799;28;20410;-68
2022/06/26 04:37:42;;;;;;;1.90;1.40;;;24.60;56.70;;;;;;4975403;28;20486;-68
2022/06/26 04:40:10;;;;;;;1.85;1.58;;;24.50;56.70;;;;;;4992636;28;20387;-68
2022/06/26 04:42:36;;;;;;;1.50;1.40;;;24.50;56.70;;;;;;4992532;28;20405;-68
2022/06/26 04:45:02;;;;;;;1.40;1.30;;;24.60;56.80;;;;;;4991833;28;20410;-68
2022/06/26 04:47:28;;;;;;;1.45;1.33;;;24.50;56.70;;;;;;4992575;28;20407;-68
2022/06/26 04:49:53;;;;;;;1.57;1.43;;;24.50;56.70;;;;;;4992507;28;20402;-68
2022/06/26 04:52:19;;;;;;;1.67;1.50;;;24.50;56.80;;;;;;4992500;28;20406;-68
2022/06/26 04:54:45;;;;;;;1.50;1.40;;;24.60;56.90;;;;;;4974907;28;20874;-68
2022/06/26 04:57:11;;;;;;;2.00;1.67;;;24.50;56.80;;;;;;4974659;28;20399;-69
2022/06/26 04:59:37;;;;;;;1.70;1.45;;;24.60;56.90;;;;;;4992386;28;20395;-68
2022/06/26 05:02:04;;;;;;;1.50;1.40;;;24.50;56.90;;;;;;4974918;28;20410;-68
2022/06/26 05:04:30;;;;;;;1.40;1.30;;;24.60;56.90;;;;;;4974899;28;20394;-68
2022/06/26 05:06:56;;;;;;;1.50;1.40;;;24.60;56.90;;;;;;4991969;28;20509;-68
2022/06/26 05:09:23;;;;;;;1.93;1.33;;;24.60;56.90;;;;;;4991942;28;20901;-68
2022/06/26 05:11:48;;;;;;;1.53;1.43;;;24.60;57.00;;;;;;4992278;28;20475;-68
2022/06/26 05:14:15;;;;;;;2.13;1.58;;;24.50;56.90;;;;;;4992213;28;20382;-68
2022/06/26 05:16:40;;;;;;;1.60;1.50;;;24.60;57.00;;;;;;4992064;28;20390;-68
2022/06/26 05:19:06;;;;;;;1.57;1.40;;;24.60;57.00;;;;;;4991672;28;20739;-68
2022/06/26 05:21:32;;;;;;;1.38;1.27;;;24.60;56.90;;;;;;4991566;28;20410;-68
2022/06/26 05:23:57;;;;;;;1.40;1.30;;;24.60;57.00;;;;;;4992156;28;20445;-68
2022/06/26 05:26:23;;;;;;;1.48;1.27;;;24.60;57.00;;;;;;4974483;28;20418;-68
2022/06/26 05:28:49;;;;;;;1.35;1.20;;;24.60;57.10;;;;;;4992108;28;20478;-68
2022/06/26 05:31:15;;;;;;;1.52;1.33;;;24.60;57.10;;;;;;4991621;28;20398;-68
2022/06/26 05:33:41;;;;;;;1.45;1.30;;;24.60;57.10;;;;;;4992069;28;20468;-68
2022/06/26 05:36:07;;;;;;;1.60;1.50;;;24.60;57.70;;;;;;4992000;28;20452;-68
2022/06/26 05:38:37;;;;;;;1.60;1.43;;;24.60;57.20;;;;;;4991878;28;20391;-68
2022/06/26 05:41:03;;;;;;;1.40;1.20;;;24.60;57.30;;;;;;4991554;28;20448;-67
2022/06/26 05:43:29;;;;;;;1.50;1.40;;;24.60;57.20;;;;;;4991958;28;20462;-68
2022/06/26 05:45:55;;;;;;;1.50;1.40;;;24.60;57.20;;;;;;4991676;28;20513;-68
2022/06/26 05:48:21;;;;;;;1.90;1.30;;;24.60;57.20;;;;;;4991764;28;20391;-68
2022/06/26 05:50:46;;;;;;;1.67;1.35;;;24.60;57.90;;;;;;4991873;28;20403;-68
2022/06/26 05:53:12;;;;;;;3.42;2.50;;;24.60;57.40;;;;;;4991323;28;20393;-67
2022/06/26 05:55:38;;;;;;;2.53;2.10;;;24.70;60.80;;;;;;4974366;28;20406;-68
2022/06/26 05:58:05;;;;;;;2.42;1.88;;;24.70;59.80;;;;;;4991787;28;20746;-67
2022/06/26 06:00:31;;;;;;;5.13;2.20;;;24.70;60.20;;;;;;4991996;28;20391;-68
2022/06/26 06:02:57;;;;;;;2.75;2.00;;;24.80;61.50;;;;;;4994393;28;20480;-66
2022/06/26 06:05:23;;;;;;;3.83;2.00;;;24.90;60.50;;;;;;5010356;28;20566;-68
2022/06/26 06:07:49;;;;;;;4.20;1.90;;;24.80;60.40;;;;;;5010985;28;20468;-70
2022/06/26 06:10:15;;;;;;;3.75;2.13;;;24.80;60.40;;;;;;4993360;28;20873;-68
2022/06/26 06:12:40;;;;;;;3.10;1.87;;;24.80;60.90;;;;;;5011068;28;20401;-68
2022/06/26 06:15:07;;;;;;;2.30;1.80;;;24.80;60.00;;;;;;4986782;28;20472;-68
2022/06/26 06:17:35;;;;;;;2.55;1.83;;;24.80;59.90;;;;;;4973949;28;20422;-68
2022/06/26 06:20:03;;;;;;;2.25;2.03;;;24.80;59.50;;;;;;4973781;28;20397;-68
2022/06/26 06:22:29;;;;;;;3.80;2.13;;;24.80;59.40;;;;;;4991389;28;20394;-68
2022/06/26 06:24:55;;;;;;;2.80;1.90;;;24.80;59.10;;;;;;4991160;28;20440;-69
2022/06/26 06:27:20;;;;;;;2.60;1.80;;;24.80;58.70;;;;;;4990811;28;20907;-68
2022/06/26 06:29:46;;;;;;;2.70;1.90;;;24.80;58.80;;;;;;4991302;28;20871;-67
2022/06/26 06:32:12;;;;;;;2.35;1.70;;;24.80;58.50;;;;;;4973954;28;20418;-68
2022/06/26 06:34:38;;;;;;;2.87;1.97;;;24.80;58.60;;;;;;4993638;28;20386;-67
2022/06/26 06:37:03;;;;;;;3.42;1.70;;;24.80;58.50;;;;;;4994289;28;20391;-67
2022/06/26 06:39:29;;;;;;;2.67;1.80;;;24.80;58.50;;;;;;4994482;28;20407;-68
2022/06/26 06:41:54;;;;;;;2.00;1.77;;;24.80;58.30;;;;;;4994567;28;20391;-67
2022/06/26 06:44:20;;;;;;;2.40;1.60;;;24.80;58.10;;;;;;4994306;28;20740;-68
2022/06/26 06:46:46;;;;;;;3.20;1.70;;;24.80;58.20;;;;;;4994477;28;20429;-68
2022/06/26 06:49:11;;;;;;;3.22;1.58;;;24.80;58.10;;;;;;4994139;28;20442;-68
2022/06/26 06:51:37;;;;;;;3.67;1.60;;;24.80;58.00;;;;;;4994517;28;20402;-67
2022/06/26 06:54:03;;;;;;;2.60;1.70;;;24.80;58.00;;;;;;4994435;28;20402;-67
2022/06/26 06:56:28;;;;;;;2.15;1.60;;;24.80;58.00;;;;;;4976877;28;20717;-68
2022/06/26 06:58:54;;;;;;;2.57;1.80;;;24.80;57.90;;;;;;4994361;28;20394;-68
2022/06/26 07:01:19;;;;;;;3.83;2.00;;;24.80;58.00;;;;;;4993653;28;20759;-67
2022/06/26 07:03:45;;;;;;;2.92;1.80;;;24.80;58.00;;;;;;4994017;28;20399;-68
2022/06/26 07:06:11;;;;;;;3.20;1.90;;;24.80;58.10;;;;;;4994084;28;20516;-67
2022/06/26 07:08:36;;;;;;;2.60;1.75;;;24.80;57.50;;;;;;4994178;28;20746;-69
2022/06/26 07:11:02;;;;;;;2.80;1.70;;;24.80;58.00;;;;;;4993657;28;20811;-67
2022/06/26 07:13:28;;;;;;;1.93;1.60;;;24.80;58.00;;;;;;4976683;28;20389;-67
2022/06/26 07:15:53;;;;;;;3.25;1.95;;;24.80;57.90;;;;;;4993954;28;20405;-67
2022/06/26 07:18:19;;;;;;;4.40;1.90;;;24.80;58.30;;;;;;4993720;28;20409;-68
2022/06/26 07:20:45;;;;;;;4.03;2.10;;;24.80;58.30;;;;;;4993707;28;20819;-69
2022/06/26 07:23:11;;;;;;;6.10;1.95;;;24.90;58.80;;;;;;4993150;28;20895;-66
2022/06/26 07:25:37;;;;;;;4.30;1.80;;;24.90;58.70;;;;;;4993657;28;20835;-68
2022/06/26 07:28:02;;;;;;;4.55;1.70;;;24.90;58.30;;;;;;4976187;28;21157;-67
2022/06/26 07:30:28;;;;;;;3.43;1.90;;;24.90;58.40;;;;;;4993858;28;20417;-68
2022/06/26 07:32:54;;;;;;;5.03;1.88;;;24.90;58.00;;;;;;4994430;28;20398;-67
2022/06/26 07:35:19;;;;;;;3.95;1.60;;;24.90;58.20;;;;;;4993090;28;20747;-68
2022/06/26 07:37:46;;;;;;;3.10;1.80;;;24.90;58.30;;;;;;4991037;28;20408;-67
2022/06/26 07:40:12;;;;;;;7.03;2.83;;;24.90;58.30;;;;;;5013446;28;20403;-68
2022/06/26 07:42:37;;;;;;;5.57;2.73;;;25.00;61.90;;;;;;5012998;28;20389;-68
2022/06/26 07:45:03;;;;;;;3.80;2.17;;;25.00;61.60;;;;;;5011853;28;20467;-66
2022/06/26 07:47:29;;;;;;;4.18;2.20;;;25.00;60.80;;;;;;4995039;28;20425;-68
2022/06/26 07:49:55;;;;;;;4.85;2.33;;;25.00;60.50;;;;;;5012914;28;20467;-68
2022/06/26 07:52:20;;;;;;;4.97;2.10;;;25.00;60.00;;;;;;5012837;28;20446;-68
2022/06/26 07:54:46;;;;;;;4.50;2.17;;;25.00;59.80;;;;;;5010371;28;20885;-67
2022/06/26 07:57:12;;;;;;;3.60;2.10;;;25.00;59.60;;;;;;4991991;28;20406;-67
2022/06/26 07:59:37;;;;;;;5.27;2.00;;;25.00;59.50;;;;;;4992926;28;20410;-66
2022/06/26 08:02:03;;;;;;;4.25;2.10;;;25.00;59.50;;;;;;4993126;28;20482;-68
2022/06/26 08:04:29;;;;;;;3.50;1.97;;;25.00;59.20;;;;;;4993110;28;20878;-68
2022/06/26 08:06:54;;;;;;;3.03;2.10;;;25.00;59.30;;;;;;4992726;28;20476;-68
2022/06/26 08:09:20;;;;;;;3.30;2.00;;;25.00;59.20;;;;;;4992384;28;20390;-68
2022/06/26 08:11:46;;;;;;;3.43;2.33;;;25.00;59.10;;;;;;4992953;28;20394;-68
2022/06/26 08:14:11;;;;;;;3.85;2.20;;;25.00;59.10;;;;;;4992705;28;20767;-68
2022/06/26 08:16:37;;;;;;;2.90;2.20;;;25.10;59.00;;;;;;4992931;28;20391;-68
2022/06/26 08:19:02;;;;;;;2.90;2.00;;;25.10;59.00;;;;;;4992637;28;20495;-69
2022/06/26 08:24:12;;;;;;;2.85;1.92;;;25.10;58.90;;;;;;4992588;28;20472;-68
2022/06/26 08:26:38;;;;;;;2.53;1.90;;;25.10;58.80;;;;;;4992681;28;20465;-68
2022/06/26 08:29:04;;;;;;;3.40;2.00;;;25.10;58.70;;;;;;4976019;28;20402;-68
2022/06/26 08:31:29;;;;;;;2.55;1.98;;;25.10;58.70;;;;;;4992216;28;20477;-68
2022/06/26 08:33:55;;;;;;;2.85;1.85;;;25.10;58.70;;;;;;4974980;28;20879;-68
2022/06/26 08:36:20;;;;;;;2.53;1.90;;;25.10;58.60;;;;;;4992283;28;20398;-68
2022/06/26 08:38:46;;;;;;;3.67;1.90;;;25.10;58.60;;;;;;4992449;28;20957;-69
2022/06/26 08:41:13;;;;;;;5.30;2.28;;;25.10;58.50;;;;;;4991503;28;20473;-66
2022/06/26 08:43:39;;;;;;;3.38;2.10;;;25.10;58.50;;;;;;4992302;28;20402;-68
2022/06/26 08:46:06;;;;;;;4.40;2.30;;;25.10;58.40;;;;;;4992020;28;20882;-68
2022/06/26 08:48:41;;;;;;;4.10;2.05;;;25.10;58.50;;;;;;4992168;28;20394;-69
2022/06/26 08:51:08;;;;;;;4.43;2.25;;;25.10;58.40;;;;;;4991791;28;20878;-68
2022/06/26 08:53:35;;;;;;;3.92;2.03;;;25.10;58.40;;;;;;4991961;28;20405;-68
2022/06/26 08:56:02;;;;;;;4.75;2.00;;;25.10;58.90;;;;;;4991480;28;20867;-68
2022/06/26 08:58:28;;;;;;;3.05;2.10;;;25.10;58.40;;;;;;4992109;28;20410;-68
2022/06/26 09:00:53;;;;;;;3.80;2.00;;;25.10;58.30;;;;;;4974568;28;20398;-68
2022/06/26 09:03:19;;;;;;;3.42;2.00;;;25.10;58.30;;;;;;4973936;28;20398;-68
2022/06/26 09:05:45;;;;;;;4.13;2.00;;;25.10;58.30;;;;;;4991997;28;20430;-69
2022/06/26 09:08:18;;;;;;;3.05;2.00;;;25.10;58.30;;;;;;4991739;28;20395;-68
2022/06/26 09:10:49;;;;;;;2.83;1.60;;;25.10;58.30;;;;;;4974671;28;20751;-68
2022/06/26 09:13:15;;;;;;;2.85;1.90;;;25.10;58.20;;;;;;4991359;28;20441;-68
2022/06/26 09:15:42;;;;;;;3.40;1.90;;;25.10;58.30;;;;;;4991912;28;20386;-68
2022/06/26 09:18:10;;;;;;;3.05;1.73;;;25.10;58.20;;;;;;4974393;28;20449;-69
2022/06/26 09:20:48;;;;;;;2.88;1.92;;;25.10;58.20;;;;;;4992002;28;20445;-68
2022/06/26 09:23:13;;;;;;;2.15;1.80;;;25.10;58.10;;;;;;4991527;28;20399;-68
2022/06/26 09:25:44;;;;;;;3.38;1.92;;;25.10;58.70;;;;;;4991642;28;20414;-68
2022/06/26 09:28:17;;;;;;;3.88;2.00;;;25.10;58.10;;;;;;4991827;28;20394;-69
2022/06/26 09:30:53;;;;;;;2.78;2.00;;;25.10;57.90;;;;;;4974489;28;20887;-68
2022/06/26 09:33:33;;;;;;;2.83;1.77;;;25.10;57.80;;;;;;4991220;28;20395;-69
2022/06/26 09:36:01;;;;;;;1.92;1.65;;;25.10;57.90;;;;;;4991866;28;20449;-67
2022/06/26 09:38:31;;;;;;;3.03;1.88;;;25.10;57.90;;;;;;4991766;28;20402;-68
2022/06/26 09:41:08;;;;;;;2.35;1.83;;;25.20;58.00;;;;;;4991620;28;20394;-68
2022/06/26 09:43:38;;;;;;;2.25;1.80;;;25.20;57.90;;;;;;4991288;28;20406;-68
2022/06/26 09:46:10;;;;;;;2.25;1.90;;;25.20;58.00;;;;;;4991229;28;20425;-68
2022/06/26 09:48:37;;;;;;;2.70;1.77;;;25.20;57.80;;;;;;4991784;28;20394;-68
2022/06/26 09:51:04;;;;;;;2.75;1.90;;;25.20;57.80;;;;;;4991380;28;20750;-67
2022/06/26 09:53:30;;;;;;;3.00;1.77;;;25.20;57.90;;;;;;4991120;28;20397;-68
2022/06/26 09:55:59;;;;;;;2.20;2.00;;;25.20;57.90;;;;;;4991508;28;20826;-68
2022/06/26 09:58:27;;;;;;;2.33;1.85;;;25.20;57.90;;;;;;4991582;28;20391;-68
2022/06/26 10:06:26;;;;;;;1.80;1.70;;;25.20;58.00;;;;;;5011155;28;20439;-68
2022/06/26 10:09:00;;;;;;;1.98;1.60;;;25.10;57.80;;;;;;5014121;28;20425;-69
2022/06/26 10:11:28;;;;;;;1.90;1.70;;;25.20;57.80;;;;;;5014302;28;20397;-68
2022/06/26 10:14:18;;;;;;;1.92;1.60;;;25.10;57.80;;;;;;5014543;28;20385;-68
2022/06/26 10:17:15;;;;;;;2.55;1.75;;;25.20;57.90;;;;;;5014685;28;20930;-68
2022/06/26 10:19:55;;;;;;;1.73;1.60;;;25.20;57.90;;;;;;5014467;28;20392;-68
2022/06/26 10:22:21;;;;;;;3.40;1.80;;;25.20;57.80;;;;;;5014887;28;20472;-68
2022/06/26 10:24:55;;;;;;;2.15;1.75;;;25.20;57.80;;;;;;5014437;28;20476;-68
2022/06/26 10:27:30;;;;;;;2.05;1.85;;;25.20;57.80;;;;;;5013652;28;20421;-68
2022/06/26 10:30:11;;;;;;;2.60;2.00;;;25.20;57.90;;;;;;4997129;28;20385;-68
2022/06/26 10:32:37;;;;;;;2.70;1.80;;;25.10;57.90;;;;;;4996741;28;20393;-67
2022/06/26 10:35:04;;;;;;;6.32;2.53;;;25.20;58.80;;;;;;5014020;28;20472;-68
2022/06/26 10:37:46;;;;;;;5.20;2.30;;;25.20;59.40;;;;;;4996241;28;20432;-68
2022/06/26 10:42:52;;;;;;;5.90;2.65;;;25.30;59.80;;;;;;5014247;28;20428;-68
2022/06/26 10:43:04;;;;;;;8.25;2.13;;;25.30;59.50;;;;;;5013783;28;20870;-68
2022/06/26 10:45:39;;;;;;;6.68;2.50;;;25.30;59.40;;;;;;5013328;28;20412;-69
2022/06/26 10:48:07;;;;;;;4.35;2.38;;;25.30;59.40;;;;;;5014120;28;20397;-68
2022/06/26 10:50:38;;;;;;;6.30;2.50;;;25.30;59.60;;;;;;5014034;28;20399;-68
2022/06/26 10:53:19;;;;;;;5.28;2.33;;;25.30;59.70;;;;;;5005600;28;20451;-68
2022/06/26 10:55:59;;;;;;;5.00;2.58;;;25.30;59.80;;;;;;5013830;28;20388;-68
2022/06/26 10:58:38;;;;;;;4.30;2.13;;;25.30;59.40;;;;;;5014955;28;20393;-68
2022/06/26 11:01:06;;;;;;;5.18;2.35;;;25.30;59.30;;;;;;4996377;28;20436;-68
2022/06/26 11:03:33;;;;;;;3.53;2.20;;;25.30;59.50;;;;;;5013325;28;20393;-68
2022/06/26 11:05:59;;;;;;;4.82;2.40;;;25.30;59.40;;;;;;5006939;28;20426;-68
2022/06/26 11:08:34;;;;;;;3.25;2.10;;;25.30;59.40;;;;;;5000090;28;20388;-67
2022/06/26 11:11:03;;;;;;;5.13;2.15;;;25.30;59.40;;;;;;4996270;28;20760;-68
2022/06/26 11:13:29;;;;;;;4.40;2.22;;;25.30;59.30;;;;;;5007368;28;20394;-68
2022/06/26 11:15:55;;;;;;;5.10;2.20;;;25.30;59.20;;;;;;4998456;28;20399;-68
2022/06/26 11:18:21;;;;;;;3.83;2.30;;;25.30;59.40;;;;;;5012966;28;20400;-68
2022/06/26 11:20:56;;;;;;;5.70;1.80;;;25.30;59.20;;;;;;5012382;28;20459;-68
2022/06/26 11:23:25;;;;;;;4.95;2.03;;;25.30;59.20;;;;;;5013124;28;20385;-67
2022/06/26 11:25:57;;;;;;;5.28;2.00;;;25.30;58.90;;;;;;5012736;28;20901;-67
2022/06/26 11:28:41;;;;;;;4.20;2.00;;;25.30;58.80;;;;;;5013245;28;20761;-67
2022/06/26 11:31:21;;;;;;;3.70;1.90;;;25.30;58.60;;;;;;5013036;28;20388;-68
2022/06/26 11:33:46;;;;;;;6.00;2.50;;;25.30;58.70;;;;;;5012837;28;20471;-68
2022/06/26 11:36:15;;;;;;;8.05;2.67;;;25.30;61.30;;;;;;5014619;28;20392;-68
2022/06/26 11:38:54;;;;;;;5.40;2.42;;;25.40;62.30;;;;;;5013998;28;20947;-68
2022/06/26 11:41:21;;;;;;;5.13;2.30;;;25.50;61.60;;;;;;5013543;28;20904;-69
2022/06/26 11:43:49;;;;;;;7.25;2.40;;;25.40;61.00;;;;;;4995276;28;20480;-68
2022/06/26 11:46:15;;;;;;;6.20;2.50;;;25.50;60.80;;;;;;5013037;28;20420;-69
2022/06/26 11:48:41;;;;;;;5.32;2.10;;;25.50;61.50;;;;;;5012917;28;20393;-68
2022/06/26 11:51:09;;;;;;;6.25;2.40;;;25.50;61.40;;;;;;5012787;28;20730;-68
2022/06/26 11:53:35;;;;;;;5.10;2.08;;;25.50;61.80;;;;;;5012898;28;20446;-68
2022/06/26 11:56:03;;;;;;;3.95;2.10;;;25.50;61.40;;;;;;5004786;28;20483;-68
2022/06/26 11:58:32;;;;;;;5.72;2.40;;;25.50;61.20;;;;;;4985934;28;20771;-69
2022/06/26 12:01:08;;;;;;;4.78;2.05;;;25.50;60.60;;;;;;5002337;28;20399;-68
2022/06/26 12:03:54;;;;;;;4.75;2.25;;;25.50;60.00;;;;;;5003117;28;20482;-69
2022/06/26 12:06:33;;;;;;;4.75;2.10;;;25.50;59.70;;;;;;5002874;28;20421;-68
2022/06/26 12:09:00;;;;;;;4.80;1.90;;;25.50;60.00;;;;;;5002336;28;20387;-68
2022/06/26 12:11:26;;;;;;;3.13;1.90;;;25.50;59.60;;;;;;5001102;28;20952;-67
2022/06/26 12:13:53;;;;;;;3.35;1.80;;;25.50;60.40;;;;;;5003283;28;20484;-68
2022/06/26 12:16:18;;;;;;;2.97;1.88;;;25.50;59.10;;;;;;5001422;28;20881;-68
2022/06/26 12:18:44;;;;;;;3.30;1.90;;;25.50;59.20;;;;;;5003209;28;20394;-69
2022/06/26 12:21:19;;;;;;;2.25;1.77;;;25.50;59.60;;;;;;5003025;28;20406;-69
2022/06/26 12:23:46;;;;;;;3.13;1.80;;;25.50;58.90;;;;;;4981139;28;20453;-68
2022/06/26 12:26:16;;;;;;;2.20;1.73;;;25.60;59.10;;;;;;5006029;28;20433;-68
2022/06/26 12:28:58;;;;;;;3.13;1.90;;;25.60;58.90;;;;;;5012347;28;20853;-68
2022/06/26 12:31:24;;;;;;;2.95;1.60;;;25.50;59.40;;;;;;5012030;28;20865;-68
2022/06/26 12:33:50;;;;;;;2.50;1.70;;;25.60;59.10;;;;;;5012529;28;20392;-69
2022/06/26 12:36:16;;;;;;;2.47;1.77;;;25.60;58.80;;;;;;5013139;28;20794;-68
2022/06/26 12:38:43;;;;;;;2.05;1.63;;;25.60;58.90;;;;;;4994663;28;20420;-67
2022/06/26 12:41:18;;;;;;;4.20;1.80;;;25.60;59.10;;;;;;5012173;28;20427;-68
2022/06/26 12:43:49;;;;;;;2.43;1.67;;;25.50;59.10;;;;;;5011084;28;20400;-69
2022/06/26 12:46:15;;;;;;;2.97;1.60;;;25.60;59.00;;;;;;5011650;28;20417;-68
2022/06/26 12:48:42;;;;;;;3.42;1.70;;;25.60;58.80;;;;;;5011753;28;20753;-69
2022/06/26 12:51:07;;;;;;;3.65;1.67;;;25.60;58.80;;;;;;4994033;28;20769;-69
2022/06/26 12:53:33;;;;;;;5.20;1.80;;;25.60;58.80;;;;;;5011200;28;20400;-67
2022/06/26 12:55:59;;;;;;;3.83;1.70;;;25.60;58.80;;;;;;4994206;28;20400;-68
2022/06/26 12:58:25;;;;;;;4.50;1.60;;;25.60;58.70;;;;;;5007586;28;20405;-68
2022/06/26 13:00:51;;;;;;;3.53;1.80;;;25.60;59.10;;;;;;5002368;28;20419;-69
2022/06/26 13:03:17;;;;;;;4.30;1.80;;;25.60;59.50;;;;;;5001512;28;20447;-68